sensor_id;sensor_type;location;lat;lon;timestamp;temperature;humidity
15111;DHT22;7656;51.954;7.998;2023-08-20T00:03:57;22.00;99.90
15111;DHT22;7656;51.954;7.998;2023-08-20T00:08:19;22.00;99.90
15111;DHT22;7656;51.954;7.998;2023-08-20T00:12:40;21.40;99.90
15111;DHT22;7656;51.954;7.998;2023-08-20T00:17:01;21.10;99.90
15111;DHT22;7656;51.954;7.998;2023-08-20T00:21:23;21.10;99.90
15111;DHT22;7656;51.954;7.998;2023-08-20T00:25:44;21.00;99.90
15111;DHT22;7656;51.954;7.998;2023-08-20T00:30:06;20.80;99.90
15111;DHT22;7656;51.954;7.998;2023-08-20T00:34:28;20.80;99.90
15111;DHT22;7656;51.954;7.998;2023-08-20T00:38:49;20.80;99.90
15111;DHT22;7656;51.954;7.998;2023-08-20T00:43:12;20.60;99.90
15111;DHT22;7656;51.954;7.998;2023-08-20T00:47:34;20.70;99.90
15111;DHT22;7656;51.954;7.998;2023-08-20T00:51:56;20.70;99.90
15111;DHT22;7656;51.954;7.998;2023-08-20T00:56:18;20.70;99.90
15111;DHT22;7656;51.954;7.998;2023-08-20T01:00:39;20.60;99.90
15111;DHT22;7656;51.954;7.998;2023-08-20T01:05:01;20.60;99.90
15111;DHT22;7656;51.954;7.998;2023-08-20T01:14:25;20.70;99.90
15111;DHT22;7656;51.954;7.998;2023-08-20T01:18:47;20.40;99.90
15111;DHT22;7656;51.954;7.998;2023-08-20T01:28:00;20.50;99.90
15111;DHT22;7656;51.954;7.998;2023-08-20T01:32:26;20.40;99.90
15111;DHT22;7656;51.954;7.998;2023-08-20T01:36:47;20.40;99.90
15111;DHT22;7656;51.954;7.998;2023-08-20T01:41:08;20.30;99.90
15111;DHT22;7656;51.954;7.998;2023-08-20T01:45:30;20.30;99.90
15111;DHT22;7656;51.954;7.998;2023-08-20T01:49:51;20.10;99.90
15111;DHT22;7656;51.954;7.998;2023-08-20T01:54:12;20.00;99.90
15111;DHT22;7656;51.954;7.998;2023-08-20T01:58:33;19.80;99.90
15111;DHT22;7656;51.954;7.998;2023-08-20T02:02:55;19.80;99.90
15111;DHT22;7656;51.954;7.998;2023-08-20T02:07:16;19.90;99.90
15111;DHT22;7656;51.954;7.998;2023-08-20T02:11:40;19.90;99.90
15111;DHT22;7656;51.954;7.998;2023-08-20T02:16:02;19.90;99.90
15111;DHT22;7656;51.954;7.998;2023-08-20T02:20:26;19.90;99.90
15111;DHT22;7656;51.954;7.998;2023-08-20T02:24:48;20.00;99.90
15111;DHT22;7656;51.954;7.998;2023-08-20T02:29:10;20.10;99.90
15111;DHT22;7656;51.954;7.998;2023-08-20T02:33:31;20.20;99.90
15111;DHT22;7656;51.954;7.998;2023-08-20T02:37:53;20.30;99.90
15111;DHT22;7656;51.954;7.998;2023-08-20T02:42:14;20.30;99.90
15111;DHT22;7656;51.954;7.998;2023-08-20T02:46:35;20.30;99.90
15111;DHT22;7656;51.954;7.998;2023-08-20T02:50:56;20.40;99.90
15111;DHT22;7656;51.954;7.998;2023-08-20T02:55:17;20.50;99.90
15111;DHT22;7656;51.954;7.998;2023-08-20T02:59:38;20.50;99.90
15111;DHT22;7656;51.954;7.998;2023-08-20T03:03:59;20.50;99.90
15111;DHT22;7656;51.954;7.998;2023-08-20T03:08:21;20.50;99.90
15111;DHT22;7656;51.954;7.998;2023-08-20T03:12:42;20.50;99.90
15111;DHT22;7656;51.954;7.998;2023-08-20T03:17:03;20.40;99.90
15111;DHT22;7656;51.954;7.998;2023-08-20T03:21:24;20.40;99.90
15111;DHT22;7656;51.954;7.998;2023-08-20T03:25:46;20.40;99.90
15111;DHT22;7656;51.954;7.998;2023-08-20T03:30:07;20.40;99.90
15111;DHT22;7656;51.954;7.998;2023-08-20T03:34:29;20.30;99.90
15111;DHT22;7656;51.954;7.998;2023-08-20T03:38:52;20.20;99.90
15111;DHT22;7656;51.954;7.998;2023-08-20T03:43:13;20.20;99.90
15111;DHT22;7656;51.954;7.998;2023-08-20T03:47:34;20.20;99.90
15111;DHT22;7656;51.954;7.998;2023-08-20T03:51:55;20.40;99.90
15111;DHT22;7656;51.954;7.998;2023-08-20T03:56:16;20.30;99.90
15111;DHT22;7656;51.954;7.998;2023-08-20T04:00:38;20.30;99.90
15111;DHT22;7656;51.954;7.998;2023-08-20T04:04:59;20.10;99.90
15111;DHT22;7656;51.954;7.998;2023-08-20T04:09:21;19.80;99.90
15111;DHT22;7656;51.954;7.998;2023-08-20T04:13:43;19.90;99.90
15111;DHT22;7656;51.954;7.998;2023-08-20T04:18:05;19.90;99.90
15111;DHT22;7656;51.954;7.998;2023-08-20T04:22:26;20.00;99.90
15111;DHT22;7656;51.954;7.998;2023-08-20T04:26:49;20.00;99.90
15111;DHT22;7656;51.954;7.998;2023-08-20T04:31:17;20.00;99.90
15111;DHT22;7656;51.954;7.998;2023-08-20T04:35:45;20.00;99.90
15111;DHT22;7656;51.954;7.998;2023-08-20T04:40:06;19.90;99.90
15111;DHT22;7656;51.954;7.998;2023-08-20T04:44:28;19.70;99.90
15111;DHT22;7656;51.954;7.998;2023-08-20T04:48:50;19.50;99.90
15111;DHT22;7656;51.954;7.998;2023-08-20T04:53:12;19.60;99.90
15111;DHT22;7656;51.954;7.998;2023-08-20T04:57:33;19.50;99.90
15111;DHT22;7656;51.954;7.998;2023-08-20T05:01:54;19.40;99.90
15111;DHT22;7656;51.954;7.998;2023-08-20T05:06:30;19.30;99.90
15111;DHT22;7656;51.954;7.998;2023-08-20T05:10:51;19.20;99.90
15111;DHT22;7656;51.954;7.998;2023-08-20T05:15:12;18.90;99.90
15111;DHT22;7656;51.954;7.998;2023-08-20T05:19:33;18.80;99.90
15111;DHT22;7656;51.954;7.998;2023-08-20T05:23:54;18.60;99.90
15111;DHT22;7656;51.954;7.998;2023-08-20T05:28:16;18.60;99.90
15111;DHT22;7656;51.954;7.998;2023-08-20T05:32:37;18.70;99.90
15111;DHT22;7656;51.954;7.998;2023-08-20T05:36:58;18.70;99.90
15111;DHT22;7656;51.954;7.998;2023-08-20T05:41:20;18.80;99.90
15111;DHT22;7656;51.954;7.998;2023-08-20T05:45:41;18.90;99.90
15111;DHT22;7656;51.954;7.998;2023-08-20T05:50:05;19.20;99.90
15111;DHT22;7656;51.954;7.998;2023-08-20T05:54:27;19.60;99.90
15111;DHT22;7656;51.954;7.998;2023-08-20T05:58:49;20.00;99.90
15111;DHT22;7656;51.954;7.998;2023-08-20T06:03:11;20.20;99.90
15111;DHT22;7656;51.954;7.998;2023-08-20T06:07:32;20.30;99.90
15111;DHT22;7656;51.954;7.998;2023-08-20T06:11:53;20.40;99.90
15111;DHT22;7656;51.954;7.998;2023-08-20T06:16:14;20.50;99.90
15111;DHT22;7656;51.954;7.998;2023-08-20T06:20:35;20.60;99.90
15111;DHT22;7656;51.954;7.998;2023-08-20T06:24:56;20.80;99.90
15111;DHT22;7656;51.954;7.998;2023-08-20T07:39:14;37.20;99.90
15111;DHT22;7656;51.954;7.998;2023-08-20T07:43:37;35.40;99.90
15111;DHT22;7656;51.954;7.998;2023-08-20T07:56:41;38.60;99.90
15111;DHT22;7656;51.954;7.998;2023-08-20T08:01:02;38.80;99.90
15111;DHT22;7656;51.954;7.998;2023-08-20T08:05:23;37.00;99.90
15111;DHT22;7656;51.954;7.998;2023-08-20T08:14:06;36.50;99.90
15111;DHT22;7656;51.954;7.998;2023-08-20T08:22:49;39.30;99.90
15111;DHT22;7656;51.954;7.998;2023-08-20T08:27:10;38.80;99.90
15111;DHT22;7656;51.954;7.998;2023-08-20T08:31:31;39.40;99.90
15111;DHT22;7656;51.954;7.998;2023-08-20T08:35:54;40.30;99.90
15111;DHT22;7656;51.954;7.998;2023-08-20T08:40:15;41.80;99.90
15111;DHT22;7656;51.954;7.998;2023-08-20T08:48:59;43.40;97.60
15111;DHT22;7656;51.954;7.998;2023-08-20T08:57:43;43.60;96.40
15111;DHT22;7656;51.954;7.998;2023-08-20T09:02:09;43.60;94.60
15111;DHT22;7656;51.954;7.998;2023-08-20T09:06:49;41.90;95.90
15111;DHT22;7656;51.954;7.998;2023-08-20T09:11:11;43.40;94.70
15111;DHT22;7656;51.954;7.998;2023-08-20T09:15:33;43.20;91.80
15111;DHT22;7656;51.954;7.998;2023-08-20T09:19:56;43.00;93.70
15111;DHT22;7656;51.954;7.998;2023-08-20T09:24:25;40.00;93.90
15111;DHT22;7656;51.954;7.998;2023-08-20T09:28:48;38.80;95.60
15111;DHT22;7656;51.954;7.998;2023-08-20T09:33:12;34.80;99.90
15111;DHT22;7656;51.954;7.998;2023-08-20T09:41:59;37.20;99.80
15111;DHT22;7656;51.954;7.998;2023-08-20T09:46:24;36.80;98.60
15111;DHT22;7656;51.954;7.998;2023-08-20T09:50:49;35.10;99.90
15111;DHT22;7656;51.954;7.998;2023-08-20T09:55:21;34.60;99.90
15111;DHT22;7656;51.954;7.998;2023-08-20T09:59:43;34.30;99.90
15111;DHT22;7656;51.954;7.998;2023-08-20T10:04:06;34.60;99.90
15111;DHT22;7656;51.954;7.998;2023-08-20T10:12:49;35.50;99.90
15111;DHT22;7656;51.954;7.998;2023-08-20T10:17:11;35.80;98.80
15111;DHT22;7656;51.954;7.998;2023-08-20T10:21:33;35.30;99.80
15111;DHT22;7656;51.954;7.998;2023-08-20T10:25:54;34.90;99.90
15111;DHT22;7656;51.954;7.998;2023-08-20T10:30:20;34.80;99.90
15111;DHT22;7656;51.954;7.998;2023-08-20T10:34:52;34.60;99.90
15111;DHT22;7656;51.954;7.998;2023-08-20T10:39:20;33.90;99.90
15111;DHT22;7656;51.954;7.998;2023-08-20T10:43:47;33.60;99.90
15111;DHT22;7656;51.954;7.998;2023-08-20T10:48:11;33.40;99.90
15111;DHT22;7656;51.954;7.998;2023-08-20T10:52:32;33.20;99.90
15111;DHT22;7656;51.954;7.998;2023-08-20T10:56:59;33.30;99.90
15111;DHT22;7656;51.954;7.998;2023-08-20T11:01:21;33.10;99.90
15111;DHT22;7656;51.954;7.998;2023-08-20T11:05:43;32.90;99.90
15111;DHT22;7656;51.954;7.998;2023-08-20T11:10:06;33.60;99.90
15111;DHT22;7656;51.954;7.998;2023-08-20T11:14:28;34.30;99.90
15111;DHT22;7656;51.954;7.998;2023-08-20T11:18:52;34.20;99.90
15111;DHT22;7656;51.954;7.998;2023-08-20T11:23:14;34.50;99.90
15111;DHT22;7656;51.954;7.998;2023-08-20T11:27:35;34.70;99.90
15111;DHT22;7656;51.954;7.998;2023-08-20T11:31:56;34.70;99.90
15111;DHT22;7656;51.954;7.998;2023-08-20T11:36:20;34.90;99.90
15111;DHT22;7656;51.954;7.998;2023-08-20T11:40:41;35.10;99.90
15111;DHT22;7656;51.954;7.998;2023-08-20T11:45:02;35.30;99.70
15111;DHT22;7656;51.954;7.998;2023-08-20T11:49:27;35.40;99.10
15111;DHT22;7656;51.954;7.998;2023-08-20T11:53:51;35.50;99.90
15111;DHT22;7656;51.954;7.998;2023-08-20T11:58:13;35.40;99.90
15111;DHT22;7656;51.954;7.998;2023-08-20T12:02:34;35.00;99.30
15111;DHT22;7656;51.954;7.998;2023-08-20T12:07:03;34.70;99.90
15111;DHT22;7656;51.954;7.998;2023-08-20T12:11:26;35.00;99.80
15111;DHT22;7656;51.954;7.998;2023-08-20T12:15:48;35.30;98.80
15111;DHT22;7656;51.954;7.998;2023-08-20T12:20:10;35.00;99.90
15111;DHT22;7656;51.954;7.998;2023-08-20T12:24:33;35.40;99.90
15111;DHT22;7656;51.954;7.998;2023-08-20T12:28:54;36.10;99.90
15111;DHT22;7656;51.954;7.998;2023-08-20T12:33:15;36.40;98.90
15111;DHT22;7656;51.954;7.998;2023-08-20T12:37:37;36.80;97.20
15111;DHT22;7656;51.954;7.998;2023-08-20T12:41:58;36.90;96.20
15111;DHT22;7656;51.954;7.998;2023-08-20T12:46:19;36.70;95.40
15111;DHT22;7656;51.954;7.998;2023-08-20T12:50:41;36.50;95.50
15111;DHT22;7656;51.954;7.998;2023-08-20T12:55:02;36.50;94.50
15111;DHT22;7656;51.954;7.998;2023-08-20T12:59:24;36.50;95.40
15111;DHT22;7656;51.954;7.998;2023-08-20T13:03:45;36.00;94.90
15111;DHT22;7656;51.954;7.998;2023-08-20T13:08:07;35.60;95.80
15111;DHT22;7656;51.954;7.998;2023-08-20T13:12:30;35.70;95.70
15111;DHT22;7656;51.954;7.998;2023-08-20T13:16:53;35.50;96.00
15111;DHT22;7656;51.954;7.998;2023-08-20T13:21:14;35.80;95.50
15111;DHT22;7656;51.954;7.998;2023-08-20T13:25:36;36.10;95.30
15111;DHT22;7656;51.954;7.998;2023-08-20T13:29:57;35.70;96.20
15111;DHT22;7656;51.954;7.998;2023-08-20T13:34:18;35.20;97.80
15111;DHT22;7656;51.954;7.998;2023-08-20T13:38:39;35.10;98.30
15111;DHT22;7656;51.954;7.998;2023-08-20T13:43:01;35.30;96.90
15111;DHT22;7656;51.954;7.998;2023-08-20T13:47:22;34.90;97.70
15111;DHT22;7656;51.954;7.998;2023-08-20T13:51:43;34.90;97.60
15111;DHT22;7656;51.954;7.998;2023-08-20T13:56:04;34.70;98.70
15111;DHT22;7656;51.954;7.998;2023-08-20T14:00:25;34.00;98.30
15111;DHT22;7656;51.954;7.998;2023-08-20T14:04:47;33.90;99.00
15111;DHT22;7656;51.954;7.998;2023-08-20T14:09:08;34.40;99.30
15111;DHT22;7656;51.954;7.998;2023-08-20T14:13:29;34.60;99.00
15111;DHT22;7656;51.954;7.998;2023-08-20T14:17:50;34.50;98.80
15111;DHT22;7656;51.954;7.998;2023-08-20T14:22:11;34.50;97.80
15111;DHT22;7656;51.954;7.998;2023-08-20T14:26:32;34.40;97.30
15111;DHT22;7656;51.954;7.998;2023-08-20T14:30:54;34.50;96.90
15111;DHT22;7656;51.954;7.998;2023-08-20T14:35:15;34.40;97.40
15111;DHT22;7656;51.954;7.998;2023-08-20T14:39:37;34.30;97.90
15111;DHT22;7656;51.954;7.998;2023-08-20T14:43:58;34.30;97.20
15111;DHT22;7656;51.954;7.998;2023-08-20T14:48:19;33.90;98.50
15111;DHT22;7656;51.954;7.998;2023-08-20T14:52:40;33.90;97.30
15111;DHT22;7656;51.954;7.998;2023-08-20T14:57:01;33.60;98.00
15111;DHT22;7656;51.954;7.998;2023-08-20T15:01:23;33.30;98.10
15111;DHT22;7656;51.954;7.998;2023-08-20T15:05:44;32.90;99.20
15111;DHT22;7656;51.954;7.998;2023-08-20T15:10:06;32.50;99.90
15111;DHT22;7656;51.954;7.998;2023-08-20T15:14:27;32.40;99.90
15111;DHT22;7656;51.954;7.998;2023-08-20T15:18:49;32.30;99.90
15111;DHT22;7656;51.954;7.998;2023-08-20T15:23:10;32.20;99.90
15111;DHT22;7656;51.954;7.998;2023-08-20T15:27:31;32.10;99.90
15111;DHT22;7656;51.954;7.998;2023-08-20T15:31:52;31.90;99.90
15111;DHT22;7656;51.954;7.998;2023-08-20T15:36:13;31.70;99.90
15111;DHT22;7656;51.954;7.998;2023-08-20T15:40:35;31.90;99.90
15111;DHT22;7656;51.954;7.998;2023-08-20T15:44:59;32.00;99.90
15111;DHT22;7656;51.954;7.998;2023-08-20T15:49:20;32.00;99.90
15111;DHT22;7656;51.954;7.998;2023-08-20T15:53:41;32.00;99.90
15111;DHT22;7656;51.954;7.998;2023-08-20T15:58:03;31.90;99.90
15111;DHT22;7656;51.954;7.998;2023-08-20T16:02:24;32.10;99.90
15111;DHT22;7656;51.954;7.998;2023-08-20T16:06:45;31.70;99.90
15111;DHT22;7656;51.954;7.998;2023-08-20T16:11:06;31.30;99.90
15111;DHT22;7656;51.954;7.998;2023-08-20T16:15:27;31.10;99.90
15111;DHT22;7656;51.954;7.998;2023-08-20T16:19:48;31.10;99.90
15111;DHT22;7656;51.954;7.998;2023-08-20T16:24:10;30.70;99.90
15111;DHT22;7656;51.954;7.998;2023-08-20T16:28:32;30.50;99.90
15111;DHT22;7656;51.954;7.998;2023-08-20T16:32:53;30.50;99.90
15111;DHT22;7656;51.954;7.998;2023-08-20T16:37:14;30.30;99.90
15111;DHT22;7656;51.954;7.998;2023-08-20T16:41:35;30.40;99.90
15111;DHT22;7656;51.954;7.998;2023-08-20T16:45:57;30.30;99.90
15111;DHT22;7656;51.954;7.998;2023-08-20T16:50:21;30.10;99.90
15111;DHT22;7656;51.954;7.998;2023-08-20T16:54:46;30.00;99.90
15111;DHT22;7656;51.954;7.998;2023-08-20T16:59:08;30.00;99.90
15111;DHT22;7656;51.954;7.998;2023-08-20T17:03:30;29.60;99.90
15111;DHT22;7656;51.954;7.998;2023-08-20T17:07:51;29.40;99.90
15111;DHT22;7656;51.954;7.998;2023-08-20T17:12:12;29.20;99.90
15111;DHT22;7656;51.954;7.998;2023-08-20T17:16:34;29.20;99.90
15111;DHT22;7656;51.954;7.998;2023-08-20T17:20:56;29.10;99.90
15111;DHT22;7656;51.954;7.998;2023-08-20T17:25:18;28.70;99.90
15111;DHT22;7656;51.954;7.998;2023-08-20T17:29:40;28.70;99.90
15111;DHT22;7656;51.954;7.998;2023-08-20T17:34:01;28.80;99.90
15111;DHT22;7656;51.954;7.998;2023-08-20T17:38:26;28.60;99.90
15111;DHT22;7656;51.954;7.998;2023-08-20T17:42:49;28.60;99.90
15111;DHT22;7656;51.954;7.998;2023-08-20T17:47:10;28.50;99.90
15111;DHT22;7656;51.954;7.998;2023-08-20T17:51:31;28.40;99.90
15111;DHT22;7656;51.954;7.998;2023-08-20T17:55:52;28.30;99.90
15111;DHT22;7656;51.954;7.998;2023-08-20T18:00:14;28.20;99.90
15111;DHT22;7656;51.954;7.998;2023-08-20T18:04:35;28.00;99.90
15111;DHT22;7656;51.954;7.998;2023-08-20T18:08:56;27.80;99.90
15111;DHT22;7656;51.954;7.998;2023-08-20T18:13:17;27.60;99.90
15111;DHT22;7656;51.954;7.998;2023-08-20T18:17:38;27.50;99.90
15111;DHT22;7656;51.954;7.998;2023-08-20T18:21:59;27.30;99.90
15111;DHT22;7656;51.954;7.998;2023-08-20T18:26:21;27.20;99.90
15111;DHT22;7656;51.954;7.998;2023-08-20T18:30:52;27.00;99.90
15111;DHT22;7656;51.954;7.998;2023-08-20T18:35:14;26.80;99.90
15111;DHT22;7656;51.954;7.998;2023-08-20T18:39:35;26.60;99.90
15111;DHT22;7656;51.954;7.998;2023-08-20T18:43:56;26.50;99.90
15111;DHT22;7656;51.954;7.998;2023-08-20T18:48:17;26.30;99.90
15111;DHT22;7656;51.954;7.998;2023-08-20T18:52:38;26.10;99.90
15111;DHT22;7656;51.954;7.998;2023-08-20T18:56:59;26.00;99.90
15111;DHT22;7656;51.954;7.998;2023-08-20T19:01:22;25.80;99.90
15111;DHT22;7656;51.954;7.998;2023-08-20T19:05:47;25.60;99.90
15111;DHT22;7656;51.954;7.998;2023-08-20T19:10:09;25.40;99.90
15111;DHT22;7656;51.954;7.998;2023-08-20T19:14:30;25.30;99.90
15111;DHT22;7656;51.954;7.998;2023-08-20T19:18:51;25.20;99.90
15111;DHT22;7656;51.954;7.998;2023-08-20T19:23:13;25.10;99.90
15111;DHT22;7656;51.954;7.998;2023-08-20T19:27:34;24.90;99.90
15111;DHT22;7656;51.954;7.998;2023-08-20T19:31:55;24.70;99.90
15111;DHT22;7656;51.954;7.998;2023-08-20T19:36:17;24.70;99.90
15111;DHT22;7656;51.954;7.998;2023-08-20T19:40:38;24.60;99.90
15111;DHT22;7656;51.954;7.998;2023-08-20T19:44:59;24.40;99.90
15111;DHT22;7656;51.954;7.998;2023-08-20T19:49:24;24.20;99.90
15111;DHT22;7656;51.954;7.998;2023-08-20T19:53:45;24.20;99.90
15111;DHT22;7656;51.954;7.998;2023-08-20T19:58:06;24.10;99.90
15111;DHT22;7656;51.954;7.998;2023-08-20T20:02:28;23.90;99.90
15111;DHT22;7656;51.954;7.998;2023-08-20T20:06:49;23.90;99.90
15111;DHT22;7656;51.954;7.998;2023-08-20T20:11:10;23.80;99.90
15111;DHT22;7656;51.954;7.998;2023-08-20T20:15:31;23.50;99.90
15111;DHT22;7656;51.954;7.998;2023-08-20T20:19:53;23.30;99.90
15111;DHT22;7656;51.954;7.998;2023-08-20T20:24:14;23.20;99.90
15111;DHT22;7656;51.954;7.998;2023-08-20T20:28:35;23.20;99.90
15111;DHT22;7656;51.954;7.998;2023-08-20T20:32:59;23.00;99.90
15111;DHT22;7656;51.954;7.998;2023-08-20T20:37:21;22.80;99.90
15111;DHT22;7656;51.954;7.998;2023-08-20T20:41:42;22.90;99.90
15111;DHT22;7656;51.954;7.998;2023-08-20T20:46:03;22.80;99.90
15111;DHT22;7656;51.954;7.998;2023-08-20T20:50:24;22.60;99.90
15111;DHT22;7656;51.954;7.998;2023-08-20T20:54:45;22.50;99.90
15111;DHT22;7656;51.954;7.998;2023-08-20T20:59:07;22.30;99.90
15111;DHT22;7656;51.954;7.998;2023-08-20T21:03:28;22.00;99.90
15111;DHT22;7656;51.954;7.998;2023-08-20T21:07:49;21.90;99.90
15111;DHT22;7656;51.954;7.998;2023-08-20T21:12:10;21.80;99.90
15111;DHT22;7656;51.954;7.998;2023-08-20T21:16:33;21.80;99.90
15111;DHT22;7656;51.954;7.998;2023-08-20T21:20:54;21.90;99.90
15111;DHT22;7656;51.954;7.998;2023-08-20T21:25:16;21.80;99.90
15111;DHT22;7656;51.954;7.998;2023-08-20T21:29:37;21.50;99.90
15111;DHT22;7656;51.954;7.998;2023-08-20T21:33:59;21.40;99.90
15111;DHT22;7656;51.954;7.998;2023-08-20T21:38:20;21.30;99.90
15111;DHT22;7656;51.954;7.998;2023-08-20T21:42:41;21.20;99.90
15111;DHT22;7656;51.954;7.998;2023-08-20T21:47:19;21.20;99.90
15111;DHT22;7656;51.954;7.998;2023-08-20T21:51:42;20.90;99.90
15111;DHT22;7656;51.954;7.998;2023-08-20T21:56:04;20.80;99.90
15111;DHT22;7656;51.954;7.998;2023-08-20T22:00:25;20.80;99.90
15111;DHT22;7656;51.954;7.998;2023-08-20T22:04:46;20.80;99.90
15111;DHT22;7656;51.954;7.998;2023-08-20T22:09:07;20.70;99.90
15111;DHT22;7656;51.954;7.998;2023-08-20T22:13:29;20.70;99.90
15111;DHT22;7656;51.954;7.998;2023-08-20T22:17:50;20.80;99.90
15111;DHT22;7656;51.954;7.998;2023-08-20T22:22:11;20.70;99.90
15111;DHT22;7656;51.954;7.998;2023-08-20T22:26:32;20.60;99.90
15111;DHT22;7656;51.954;7.998;2023-08-20T22:30:53;20.60;99.90
15111;DHT22;7656;51.954;7.998;2023-08-20T22:35:15;20.50;99.90
15111;DHT22;7656;51.954;7.998;2023-08-20T22:39:36;20.50;99.90
15111;DHT22;7656;51.954;7.998;2023-08-20T22:43:57;20.30;99.90
15111;DHT22;7656;51.954;7.998;2023-08-20T22:48:18;20.20;99.90
15111;DHT22;7656;51.954;7.998;2023-08-20T22:52:40;20.40;99.90
15111;DHT22;7656;51.954;7.998;2023-08-20T22:57:01;20.40;99.90
15111;DHT22;7656;51.954;7.998;2023-08-20T23:01:22;20.30;99.90
15111;DHT22;7656;51.954;7.998;2023-08-20T23:05:43;20.30;99.90
15111;DHT22;7656;51.954;7.998;2023-08-20T23:10:05;20.40;99.90
15111;DHT22;7656;51.954;7.998;2023-08-20T23:14:26;20.40;99.90
15111;DHT22;7656;51.954;7.998;2023-08-20T23:18:47;20.40;99.90
15111;DHT22;7656;51.954;7.998;2023-08-20T23:23:08;20.40;99.90
15111;DHT22;7656;51.954;7.998;2023-08-20T23:27:30;20.50;99.90
15111;DHT22;7656;51.954;7.998;2023-08-20T23:31:51;20.50;99.90
15111;DHT22;7656;51.954;7.998;2023-08-20T23:36:12;20.50;99.90
15111;DHT22;7656;51.954;7.998;2023-08-20T23:40:34;20.50;99.90
15111;DHT22;7656;51.954;7.998;2023-08-20T23:44:55;20.50;99.90
15111;DHT22;7656;51.954;7.998;2023-08-20T23:49:16;20.50;99.90
15111;DHT22;7656;51.954;7.998;2023-08-20T23:53:38;20.70;99.90
15111;DHT22;7656;51.954;7.998;2023-08-20T23:57:59;20.60;99.90
